Time;durP1;ratioP1;P1;durP2;ratioP2;P2;SDS_P1;SDS_P2;PMS_P1;PMS_P2;Temp;Humidity;BMP_temperature;BMP_pressure;BME280_temperature;BME280_humidity;BME280_pressure;Samples;Min_cycle;Max_cycle;Signal;HPM_P1;HPM_P2
2023/10/15 00:01:30;;;;;;;;;;;12.10;99.90;;;;;;5117744;28;19919;-57
2023/10/15 00:03:56;;;;;;;;;;;12.10;99.90;;;;;;5118953;28;19919;-57
2023/10/15 00:06:22;;;;;;;;;;;12.00;99.90;;;;;;5118888;28;19962;-57
2023/10/15 00:08:48;;;;;;;;;;;12.00;99.90;;;;;;5118959;28;20361;-57
2023/10/15 00:11:14;;;;;;;;;;;11.90;99.90;;;;;;5118893;28;19961;-57
2023/10/15 00:13:40;;;;;;;;;;;11.90;99.90;;;;;;5098225;28;19912;-57
2023/10/15 00:16:06;;;;;;;;;;;11.90;99.90;;;;;;5099298;28;19922;-57
2023/10/15 00:18:32;;;;;;;;;;;11.80;99.90;;;;;;5118613;28;19908;-57
2023/10/15 00:21:11;;;;;;;;;;;11.80;99.90;;;;;;5118598;28;19919;-57
2023/10/15 00:23:37;;;;;;;;;;;11.90;99.90;;;;;;5118490;28;19916;-57
2023/10/15 00:26:06;;;;;;;;;;;11.80;99.90;;;;;;5118527;28;19918;-57
2023/10/15 00:28:31;;;;;;;;;;;11.90;99.90;;;;;;5118378;28;20015;-57
2023/10/15 00:31:00;;;;;;;;;;;11.80;99.90;;;;;;5118412;28;19958;-57
2023/10/15 00:33:26;;;;;;;;;;;11.80;99.90;;;;;;5118381;28;19922;-57
2023/10/15 00:35:55;;;;;;;;;;;11.80;99.90;;;;;;5118404;28;20365;-57
2023/10/15 00:38:20;;;;;;;;;;;11.70;99.90;;;;;;5116997;28;19923;-57
2023/10/15 00:40:51;;;;;;;;;;;11.70;99.90;;;;;;5118102;28;19916;-57
2023/10/15 00:43:17;;;;;;;;;;;11.70;99.90;;;;;;5116871;28;19918;-57
2023/10/15 00:45:45;;;;;;;;;;;11.70;99.90;;;;;;5116849;28;19912;-57
2023/10/15 00:48:22;;;;;;;;;;;11.60;99.90;;;;;;5116809;28;20384;-57
2023/10/15 00:50:48;;;;;;;;;;;11.60;99.90;;;;;;5117620;28;19911;-57
2023/10/15 00:53:21;;;;;;;;;;;11.60;99.90;;;;;;5116490;27;20369;-57
2023/10/15 00:55:48;;;;;;;;;;;11.50;99.90;;;;;;5117933;28;19966;-57
2023/10/15 00:58:21;;;;;;;;;;;11.50;99.90;;;;;;5116633;28;19912;-57
2023/10/15 01:00:52;;;;;;;;;;;11.50;99.90;;;;;;5117692;28;20353;-57
2023/10/15 01:03:25;;;;;;;;;;;11.50;99.90;;;;;;5117784;28;19911;-57
2023/10/15 01:05:54;;;;;;;;;;;11.40;99.90;;;;;;5116366;28;20322;-57
2023/10/15 01:08:31;;;;;;;;;;;11.40;99.90;;;;;;5117676;28;20277;-57
2023/10/15 01:11:08;;;;;;;;;;;11.40;99.90;;;;;;5117643;28;19919;-57
2023/10/15 01:13:35;;;;;;;;;;;11.50;99.90;;;;;;5097959;28;19995;-57
2023/10/15 01:16:03;;;;;;;;;;;11.50;99.90;;;;;;5097341;28;19916;-57
2023/10/15 01:18:29;;;;;;;;;;;11.40;99.90;;;;;;5116048;28;19918;-57
2023/10/15 01:20:55;;;;;;;;;;;11.50;99.90;;;;;;5116111;28;19911;-57
2023/10/15 01:26:09;;;;;;;;;;;11.60;99.90;;;;;;5117396;28;20357;-57
2023/10/15 01:28:36;;;;;;;;;;;11.50;99.90;;;;;;5117217;28;19912;-57
2023/10/15 01:31:05;;;;;;;;;;;11.50;99.90;;;;;;5117143;28;19922;-57
2023/10/15 01:33:32;;;;;;;;;;;11.40;99.90;;;;;;5115888;28;19911;-57
2023/10/15 01:36:06;;;;;;;;;;;11.40;99.90;;;;;;5115836;28;19912;-57
2023/10/15 01:38:33;;;;;;;;;;;11.50;99.90;;;;;;5117151;28;19912;-57
2023/10/15 01:41:03;;;;;;;;;;;11.40;99.90;;;;;;5116920;28;20369;-57
2023/10/15 01:43:32;;;;;;;;;;;11.40;99.90;;;;;;5116881;28;20314;-57
2023/10/15 01:45:59;;;;;;;;;;;11.40;99.90;;;;;;5115699;28;19983;-57
2023/10/15 01:48:30;;;;;;;;;;;11.40;99.90;;;;;;5116956;28;19952;-57
2023/10/15 01:51:04;;;;;;;;;;;11.40;99.90;;;;;;5116895;28;19923;-57
2023/10/15 01:53:34;;;;;;;;;;;11.40;99.90;;;;;;5116796;28;19961;-57
2023/10/15 01:56:02;;;;;;;;;;;11.40;99.90;;;;;;5115498;28;19912;-57
2023/10/15 01:58:31;;;;;;;;;;;11.40;99.90;;;;;;5115476;28;20280;-57
2023/10/15 02:01:13;;;;;;;;;;;11.60;99.90;;;;;;5115301;28;20438;-57
2023/10/15 02:03:41;;;;;;;;;;;11.60;99.90;;;;;;5116483;28;20352;-57
2023/10/15 02:06:07;;;;;;;;;;;11.60;99.90;;;;;;5116562;28;19919;-57
2023/10/15 02:08:35;;;;;;;;;;;11.60;99.90;;;;;;5115452;28;19918;-57
2023/10/15 02:11:08;;;;;;;;;;;11.70;99.90;;;;;;5115298;28;19934;-57
2023/10/15 02:13:37;;;;;;;;;;;11.80;99.90;;;;;;5095796;28;20003;-57
2023/10/15 02:16:08;;;;;;;;;;;11.80;99.90;;;;;;5096773;28;20258;-57
2023/10/15 02:18:35;;;;;;;;;;;11.80;99.90;;;;;;5115196;28;20364;-57
2023/10/15 02:21:01;;;;;;;;;;;11.80;99.90;;;;;;5116397;28;19912;-57
2023/10/15 02:23:27;;;;;;;;;;;11.80;99.90;;;;;;5115079;28;20280;-57
2023/10/15 02:25:57;;;;;;;;;;;11.90;99.90;;;;;;5116472;28;20369;-57
2023/10/15 02:28:25;;;;;;;;;;;11.90;99.90;;;;;;5115161;28;19922;-57
2023/10/15 02:33:27;;;;;;;;;;;12.00;99.90;;;;;;5116392;28;19915;-57
2023/10/15 02:35:59;;;;;;;;;;;12.00;99.90;;;;;;5116378;28;19907;-57
2023/10/15 02:38:26;;;;;;;;;;;11.90;99.90;;;;;;5116402;28;20358;-57
2023/10/15 02:40:58;;;;;;;;;;;11.80;99.90;;;;;;5115016;28;19911;-57
2023/10/15 02:43:25;;;;;;;;;;;11.80;99.90;;;;;;5114890;28;19918;-57
2023/10/15 02:45:51;;;;;;;;;;;11.90;99.90;;;;;;5116162;28;20369;-57
2023/10/15 02:48:19;;;;;;;;;;;11.90;99.90;;;;;;5116330;28;19915;-57
2023/10/15 02:50:59;;;;;;;;;;;11.90;99.90;;;;;;5114819;28;19919;-57
2023/10/15 02:53:26;;;;;;;;;;;11.90;99.90;;;;;;5114866;28;19954;-57
2023/10/15 02:55:52;;;;;;;;;;;12.00;99.90;;;;;;5114893;28;19964;-57
2023/10/15 02:58:21;;;;;;;;;;;12.10;99.90;;;;;;5116117;28;19915;-57
2023/10/15 03:00:51;;;;;;;;;;;12.10;99.90;;;;;;5116010;28;19919;-57
2023/10/15 03:03:23;;;;;;;;;;;12.10;99.90;;;;;;5116130;28;19915;-57
2023/10/15 03:05:49;;;;;;;;;;;12.10;99.90;;;;;;5114801;28;19915;-57
2023/10/15 03:08:20;;;;;;;;;;;12.20;99.90;;;;;;5114782;28;20058;-57
2023/10/15 03:10:47;;;;;;;;;;;12.20;99.90;;;;;;5115898;28;19919;-57
2023/10/15 03:13:18;;;;;;;;;;;12.30;99.90;;;;;;5100759;28;19917;-57
2023/10/15 03:15:49;;;;;;;;;;;12.30;99.90;;;;;;5098232;28;19912;-57
2023/10/15 03:18:22;;;;;;;;;;;12.30;99.90;;;;;;5118737;28;19926;-57
2023/10/15 03:21:00;;;;;;;;;;;12.40;99.90;;;;;;5119799;28;19920;-57
2023/10/15 03:23:25;;;;;;;;;;;12.40;99.90;;;;;;5118436;28;19912;-57
2023/10/15 03:25:59;;;;;;;;;;;12.60;99.90;;;;;;5118521;28;19910;-57
2023/10/15 03:28:25;;;;;;;;;;;12.50;99.90;;;;;;5119735;28;20386;-57
2023/10/15 03:30:54;;;;;;;;;;;12.60;99.90;;;;;;5118223;28;19955;-57
2023/10/15 03:33:30;;;;;;;;;;;12.60;99.90;;;;;;5119644;28;19996;-57
2023/10/15 03:35:56;;;;;;;;;;;12.60;99.90;;;;;;5119835;28;19947;-57
2023/10/15 03:38:32;;;;;;;;;;;12.60;99.90;;;;;;5118273;28;19912;-57
2023/10/15 03:44:04;;;;;;;;;;;12.50;99.90;;;;;;5096416;28;19916;-57
2023/10/15 03:46:34;;;;;;;;;;;12.60;99.90;;;;;;5115401;28;20346;-57
2023/10/15 03:49:00;;;;;;;;;;;12.50;99.90;;;;;;5119373;28;19911;-57
2023/10/15 03:51:27;;;;;;;;;;;12.50;99.90;;;;;;5119237;28;19951;-57
2023/10/15 03:53:52;;;;;;;;;;;12.50;99.90;;;;;;5119068;28;19961;-57
2023/10/15 03:56:27;;;;;;;;;;;12.50;99.90;;;;;;5119136;28;19912;-57
2023/10/15 03:58:53;;;;;;;;;;;12.50;99.90;;;;;;5119094;28;19934;-57
2023/10/15 04:01:19;;;;;;;;;;;12.60;99.90;;;;;;5118984;28;19915;-57
2023/10/15 04:03:48;;;;;;;;;;;12.60;99.90;;;;;;5119025;28;20360;-57
2023/10/15 04:06:15;;;;;;;;;;;12.60;99.90;;;;;;5118901;28;19911;-57
2023/10/15 04:08:59;;;;;;;;;;;12.70;99.90;;;;;;5118878;28;19907;-57
2023/10/15 04:11:29;;;;;;;;;;;12.60;99.90;;;;;;5117584;28;19912;-57
2023/10/15 04:13:56;;;;;;;;;;;12.60;99.90;;;;;;5098193;28;19919;-57
2023/10/15 04:16:23;;;;;;;;;;;12.70;99.90;;;;;;5101734;28;19951;-57
2023/10/15 04:18:48;;;;;;;;;;;12.70;99.90;;;;;;5118759;28;19911;-57
2023/10/15 04:21:17;;;;;;;;;;;12.60;99.90;;;;;;5118946;28;19912;-57
2023/10/15 04:23:49;;;;;;;;;;;12.60;99.90;;;;;;5118521;28;20006;-57
2023/10/15 04:26:15;;;;;;;;;;;12.60;99.90;;;;;;5117786;28;20002;-57
2023/10/15 04:28:41;;;;;;;;;;;12.60;99.90;;;;;;5118557;27;19963;-57
2023/10/15 04:31:21;;;;;;;;;;;12.60;99.90;;;;;;5118454;28;19919;-57
2023/10/15 04:33:50;;;;;;;;;;;12.60;99.90;;;;;;5118499;28;19915;-57
2023/10/15 04:36:16;;;;;;;;;;;12.70;99.90;;;;;;5118390;28;19920;-57
2023/10/15 04:38:42;;;;;;;;;;;12.60;99.90;;;;;;5118374;28;19956;-57
2023/10/15 04:41:10;;;;;;;;;;;12.60;99.90;;;;;;5118279;28;19964;-57
2023/10/15 04:43:46;;;;;;;;;;;12.70;99.90;;;;;;5118100;28;19942;-57
2023/10/15 04:46:17;;;;;;;;;;;12.70;99.90;;;;;;5118186;28;19918;-57
2023/10/15 04:48:46;;;;;;;;;;;12.60;99.90;;;;;;5116839;28;19955;-57
2023/10/15 04:51:14;;;;;;;;;;;12.70;99.90;;;;;;5118044;28;19911;-57
2023/10/15 04:53:50;;;;;;;;;;;12.70;99.90;;;;;;5117938;28;19912;-57
2023/10/15 04:56:16;;;;;;;;;;;12.80;99.90;;;;;;5118016;28;19919;-57
2023/10/15 04:58:42;;;;;;;;;;;12.90;99.90;;;;;;5117996;28;19912;-57
2023/10/15 05:01:08;;;;;;;;;;;12.90;99.90;;;;;;5117633;28;19918;-57
2023/10/15 05:03:34;;;;;;;;;;;12.90;99.90;;;;;;5117791;28;20288;-57
2023/10/15 05:06:01;;;;;;;;;;;12.90;99.90;;;;;;5117788;28;19912;-57
2023/10/15 05:08:27;;;;;;;;;;;13.00;99.90;;;;;;5117687;28;19916;-57
2023/10/15 05:10:52;;;;;;;;;;;13.00;99.90;;;;;;5117692;28;19919;-57
2023/10/15 05:13:18;;;;;;;;;;;13.00;99.90;;;;;;5100318;28;19912;-57
2023/10/15 05:15:44;;;;;;;;;;;13.00;99.90;;;;;;5097098;28;19942;-57
2023/10/15 05:18:10;;;;;;;;;;;12.90;99.90;;;;;;5115693;28;19951;-57
2023/10/15 05:20:36;;;;;;;;;;;12.80;99.90;;;;;;5117726;28;19915;-57
2023/10/15 05:23:02;;;;;;;;;;;12.90;99.90;;;;;;5117543;28;19911;-57
2023/10/15 05:25:28;;;;;;;;;;;13.00;99.90;;;;;;5117320;28;19951;-57
2023/10/15 05:27:54;;;;;;;;;;;13.10;99.90;;;;;;5117288;28;19919;-57
2023/10/15 05:30:19;;;;;;;;;;;13.20;99.90;;;;;;5117127;28;19964;-57
2023/10/15 05:32:45;;;;;;;;;;;13.30;99.90;;;;;;5117222;28;20369;-57
2023/10/15 05:35:11;;;;;;;;;;;13.30;99.90;;;;;;5117284;28;19965;-57
2023/10/15 05:37:39;;;;;;;;;;;13.20;99.90;;;;;;5117156;28;19915;-57
2023/10/15 05:40:06;;;;;;;;;;;13.20;99.90;;;;;;5117117;28;20053;-57
2023/10/15 05:42:32;;;;;;;;;;;13.30;99.90;;;;;;5116926;28;19912;-57
2023/10/15 05:44:58;;;;;;;;;;;13.40;99.90;;;;;;5116903;28;19916;-57
2023/10/15 05:47:24;;;;;;;;;;;13.40;99.90;;;;;;5117050;28;20441;-57
2023/10/15 05:49:49;;;;;;;;;;;13.40;99.90;;;;;;5116975;28;19911;-57
2023/10/15 05:52:15;;;;;;;;;;;13.50;99.90;;;;;;5116913;28;19911;-57
2023/10/15 05:54:41;;;;;;;;;;;13.40;99.90;;;;;;5116838;28;19919;-57
2023/10/15 05:57:07;;;;;;;;;;;13.50;99.90;;;;;;5116805;28;19955;-57
2023/10/15 05:59:35;;;;;;;;;;;13.40;99.90;;;;;;5116700;28;20404;-57
2023/10/15 06:02:02;;;;;;;;;;;13.40;99.90;;;;;;5116275;28;19985;-57
2023/10/15 06:04:30;;;;;;;;;;;13.50;99.90;;;;;;5116042;28;20143;-57
2023/10/15 06:06:55;;;;;;;;;;;13.60;99.90;;;;;;5116845;28;19918;-57
2023/10/15 06:09:21;;;;;;;;;;;13.70;99.90;;;;;;5116687;28;20317;-57
2023/10/15 06:11:47;;;;;;;;;;;13.80;99.90;;;;;;5112070;28;19912;-57
2023/10/15 06:14:13;;;;;;;;;;;13.90;99.90;;;;;;5096130;28;19908;-57
2023/10/15 06:16:39;;;;;;;;;;;13.90;99.90;;;;;;5101779;28;20292;-57
2023/10/15 06:19:05;;;;;;;;;;;13.90;99.90;;;;;;5116543;28;19918;-57
2023/10/15 06:21:32;;;;;;;;;;;13.90;99.90;;;;;;5116348;28;20300;-57
2023/10/15 06:23:58;;;;;;;;;;;13.90;99.90;;;;;;5116372;28;19923;-57
2023/10/15 06:26:24;;;;;;;;;;;13.80;99.90;;;;;;5116348;28;19911;-57
2023/10/15 06:28:50;;;;;;;;;;;13.80;99.90;;;;;;5116330;28;19994;-57
2023/10/15 06:31:16;;;;;;;;;;;13.90;99.90;;;;;;5116415;28;19918;-57
2023/10/15 06:33:42;;;;;;;;;;;13.90;99.90;;;;;;5116337;28;19919;-57
2023/10/15 06:36:08;;;;;;;;;;;13.90;99.90;;;;;;5116423;28;19912;-57
2023/10/15 06:38:33;;;;;;;;;;;14.00;99.90;;;;;;5116633;28;19915;-57
2023/10/15 06:41:00;;;;;;;;;;;14.00;99.90;;;;;;5116316;28;20315;-57
2023/10/15 06:43:26;;;;;;;;;;;14.00;99.90;;;;;;5116040;28;20459;-57
2023/10/15 06:45:52;;;;;;;;;;;14.00;99.90;;;;;;5116330;28;19918;-57
2023/10/15 06:48:18;;;;;;;;;;;14.10;99.90;;;;;;5117700;28;19959;-57
2023/10/15 06:50:44;;;;;;;;;;;14.20;99.90;;;;;;5120467;28;19912;-57
2023/10/15 06:53:10;;;;;;;;;;;14.10;99.90;;;;;;5120419;28;19908;-57
2023/10/15 06:55:35;;;;;;;;;;;14.20;99.90;;;;;;5120103;28;19918;-57
2023/10/15 06:58:01;;;;;;;;;;;14.20;99.90;;;;;;5120264;27;20361;-57
2023/10/15 07:00:28;;;;;;;;;;;14.30;99.90;;;;;;5120271;28;19923;-57
2023/10/15 07:02:55;;;;;;;;;;;14.30;99.90;;;;;;5120135;28;19951;-57
2023/10/15 07:05:21;;;;;;;;;;;14.30;99.90;;;;;;5120134;28;20276;-57
2023/10/15 07:07:47;;;;;;;;;;;14.40;99.90;;;;;;5120038;28;19911;-57
2023/10/15 07:10:16;;;;;;;;;;;14.40;99.90;;;;;;5119951;28;19912;-56
2023/10/15 07:12:43;;;;;;;;;;;14.40;99.90;;;;;;5106525;28;19989;-57
2023/10/15 07:15:09;;;;;;;;;;;14.40;99.90;;;;;;5098226;28;20384;-57
2023/10/15 07:17:38;;;;;;;;;;;14.50;99.90;;;;;;5113117;28;19918;-57
2023/10/15 07:20:14;;;;;;;;;;;14.50;99.90;;;;;;5119794;28;19912;-57
2023/10/15 07:22:43;;;;;;;;;;;14.50;99.90;;;;;;5119808;28;19994;-57
2023/10/15 07:25:09;;;;;;;;;;;14.60;99.90;;;;;;5119637;28;19915;-57
2023/10/15 07:27:35;;;;;;;;;;;14.60;99.90;;;;;;5119743;28;19912;-57
2023/10/15 07:30:01;;;;;;;;;;;14.50;99.90;;;;;;5119661;28;19912;-57
2023/10/15 07:32:27;;;;;;;;;;;14.60;99.90;;;;;;5119562;28;19916;-57
2023/10/15 07:34:54;;;;;;;;;;;14.50;99.90;;;;;;5119646;28;19912;-57
2023/10/15 07:37:19;;;;;;;;;;;14.50;99.90;;;;;;5119439;28;19918;-57
2023/10/15 07:39:45;;;;;;;;;;;14.50;99.90;;;;;;5119486;28;19912;-57
2023/10/15 07:42:11;;;;;;;;;;;14.50;99.90;;;;;;5119396;28;19912;-57
2023/10/15 07:44:37;;;;;;;;;;;14.50;99.90;;;;;;5119172;28;19934;-57
2023/10/15 07:47:04;;;;;;;;;;;14.50;99.90;;;;;;5119455;27;19919;-57
2023/10/15 07:49:31;;;;;;;;;;;14.50;99.90;;;;;;5119359;28;19912;-57
2023/10/15 07:51:57;;;;;;;;;;;14.50;99.90;;;;;;5119144;28;19923;-57
2023/10/15 07:54:23;;;;;;;;;;;14.40;99.90;;;;;;5119130;28;19912;-57
2023/10/15 07:56:49;;;;;;;;;;;14.40;99.90;;;;;;5119142;28;20258;-57
2023/10/15 07:59:14;;;;;;;;;;;14.40;99.90;;;;;;5118267;28;19912;-57
2023/10/15 08:01:40;;;;;;;;;;;14.30;99.90;;;;;;5118582;28;19916;-57
2023/10/15 08:04:06;;;;;;;;;;;14.20;99.90;;;;;;5119018;28;19915;-57
2023/10/15 08:06:33;;;;;;;;;;;14.30;99.90;;;;;;5118823;28;19912;-57
2023/10/15 08:08:59;;;;;;;;;;;14.30;99.90;;;;;;5118922;28;19920;-57
2023/10/15 08:11:25;;;;;;;;;;;14.30;99.90;;;;;;5117670;28;20014;-57
2023/10/15 08:13:51;;;;;;;;;;;14.20;99.90;;;;;;5098342;28;19924;-57
2023/10/15 08:16:19;;;;;;;;;;;14.30;99.90;;;;;;5101114;28;19920;-57
2023/10/15 08:18:46;;;;;;;;;;;14.20;99.90;;;;;;5118727;28;19919;-57
2023/10/15 08:21:12;;;;;;;;;;;14.20;99.90;;;;;;5118599;28;19919;-57
2023/10/15 08:23:38;;;;;;;;;;;14.20;99.90;;;;;;5118646;28;19916;-57
2023/10/15 08:26:05;;;;;;;;;;;14.10;99.90;;;;;;5118584;28;19911;-57
2023/10/15 08:28:31;;;;;;;;;;;14.20;99.90;;;;;;5118573;28;19911;-57
2023/10/15 08:30:57;;;;;;;;;;;14.20;99.90;;;;;;5118401;28;19916;-57
2023/10/15 08:33:23;;;;;;;;;;;14.00;99.90;;;;;;5118470;28;19919;-57
2023/10/15 08:35:49;;;;;;;;;;;13.90;99.90;;;;;;5118347;28;19916;-57
2023/10/15 08:38:15;;;;;;;;;;;13.90;99.90;;;;;;5118388;28;19912;-57
2023/10/15 08:40:44;;;;;;;;;;;14.00;99.90;;;;;;5118257;28;20006;-57
2023/10/15 08:43:11;;;;;;;;;;;13.90;99.90;;;;;;5118206;28;19974;-57
2023/10/15 08:45:37;;;;;;;;;;;14.00;99.90;;;;;;5118125;28;19927;-57
2023/10/15 08:48:09;;;;;;;;;;;14.10;99.90;;;;;;5118344;28;19994;-57
2023/10/15 08:50:36;;;;;;;;;;;14.10;99.90;;;;;;5117655;28;20483;-57
2023/10/15 08:53:04;;;;;;;;;;;14.10;99.90;;;;;;5118154;28;20179;-57
2023/10/15 08:55:32;;;;;;;;;;;14.10;99.90;;;;;;5118033;28;20307;-57
2023/10/15 08:57:58;;;;;;;;;;;14.00;99.90;;;;;;5118016;28;19912;-57
2023/10/15 09:00:31;;;;;;;;;;;14.10;99.90;;;;;;5117926;28;19912;-57
2023/10/15 09:02:57;;;;;;;;;;;14.00;99.90;;;;;;5117824;28;19985;-57
2023/10/15 09:05:23;;;;;;;;;;;14.00;99.90;;;;;;5117848;28;20002;-57
2023/10/15 09:07:52;;;;;;;;;;;13.90;99.90;;;;;;5117711;28;19960;-57
2023/10/15 09:10:17;;;;;;;;;;;13.90;99.90;;;;;;5117522;28;19930;-57
2023/10/15 09:12:43;;;;;;;;;;;13.80;99.90;;;;;;5105114;28;20277;-57
2023/10/15 09:15:16;;;;;;;;;;;13.80;99.90;;;;;;5097176;28;19934;-57
2023/10/15 09:17:49;;;;;;;;;;;13.80;99.90;;;;;;5111469;28;19965;-57
2023/10/15 09:20:26;;;;;;;;;;;13.80;99.90;;;;;;5117463;28;19912;-57
2023/10/15 09:22:52;;;;;;;;;;;13.80;99.90;;;;;;5117588;28;19915;-57
2023/10/15 09:25:18;;;;;;;;;;;13.70;99.90;;;;;;5117401;28;19964;-57
2023/10/15 09:27:47;;;;;;;;;;;13.70;99.90;;;;;;5117147;28;19912;-58
2023/10/15 09:30:18;;;;;;;;;;;13.70;99.90;;;;;;5117334;28;19916;-57
2023/10/15 09:32:47;;;;;;;;;;;13.60;99.90;;;;;;5117317;28;20262;-57
2023/10/15 09:35:13;;;;;;;;;;;13.50;99.90;;;;;;5117165;28;19912;-57
2023/10/15 09:37:39;;;;;;;;;;;13.50;99.90;;;;;;5117270;28;19908;-57
2023/10/15 09:40:21;;;;;;;;;;;13.30;99.90;;;;;;5117137;28;19947;-57
2023/10/15 09:42:53;;;;;;;;;;;13.30;99.90;;;;;;5117103;28;19951;-57
2023/10/15 09:45:19;;;;;;;;;;;13.30;99.90;;;;;;5117000;28;19961;-57
2023/10/15 09:47:48;;;;;;;;;;;13.30;99.90;;;;;;5116957;28;19907;-57
2023/10/15 09:50:19;;;;;;;;;;;13.50;99.90;;;;;;5117028;28;19920;-57
2023/10/15 09:52:55;;;;;;;;;;;13.40;99.90;;;;;;5116745;28;19912;-57
2023/10/15 09:55:26;;;;;;;;;;;13.40;99.90;;;;;;5116968;28;19918;-57
2023/10/15 09:57:56;;;;;;;;;;;13.20;99.90;;;;;;5116871;28;19912;-57
2023/10/15 10:00:37;;;;;;;;;;;13.30;99.90;;;;;;5116742;28;19934;-57
2023/10/15 10:03:25;;;;;;;;;;;13.30;99.90;;;;;;5116762;28;20018;-57
2023/10/15 10:06:09;;;;;;;;;;;13.40;99.90;;;;;;5095425;28;19968;-57
2023/10/15 10:08:38;;;;;;;;;;;13.20;99.90;;;;;;5116684;28;20321;-57
2023/10/15 10:11:06;;;;;;;;;;;13.40;99.90;;;;;;5116565;28;19962;-57
2023/10/15 10:13:52;;;;;;;;;;;13.50;99.90;;;;;;5097264;28;19912;-57
2023/10/15 10:16:22;;;;;;;;;;;13.50;99.90;;;;;;5098317;28;19912;-57
2023/10/15 10:18:48;;;;;;;;;;;13.60;99.90;;;;;;5116478;28;20373;-57
2023/10/15 10:21:15;;;;;;;;;;;13.60;99.90;;;;;;5116469;28;20045;-57
2023/10/15 10:23:41;;;;;;;;;;;13.60;99.90;;;;;;5115795;28;19911;-57
2023/10/15 10:26:12;;;;;;;;;;;13.60;99.90;;;;;;5116302;28;19923;-57
2023/10/15 10:28:38;;;;;;;;;;;13.60;99.90;;;;;;5116421;28;19912;-57
2023/10/15 10:31:06;;;;;;;;;;;13.80;99.90;;;;;;5116448;28;19911;-57
2023/10/15 10:33:39;;;;;;;;;;;13.70;99.90;;;;;;5116343;28;20430;-57
2023/10/15 10:36:17;;;;;;;;;;;13.80;99.90;;;;;;5116375;28;19912;-57
2023/10/15 10:38:43;;;;;;;;;;;13.80;99.90;;;;;;5116208;28;19998;-57
2023/10/15 10:41:15;;;;;;;;;;;13.70;99.90;;;;;;5116269;28;19912;-57
2023/10/15 10:43:42;;;;;;;;;;;13.60;99.90;;;;;;5116100;28;19977;-57
2023/10/15 10:46:08;;;;;;;;;;;13.80;99.90;;;;;;5116334;28;19912;-57
2023/10/15 10:48:35;;;;;;;;;;;13.90;99.90;;;;;;5114941;28;19995;-57
2023/10/15 10:51:21;;;;;;;;;;;14.00;99.90;;;;;;5116451;28;20053;-57
2023/10/15 10:53:56;;;;;;;;;;;14.00;99.90;;;;;;5115730;28;20380;-57
2023/10/15 10:56:40;;;;;;;;;;;14.00;99.90;;;;;;5116145;28;19912;-57
2023/10/15 10:59:06;;;;;;;;;;;13.90;99.90;;;;;;5116176;28;20366;-57
2023/10/15 11:01:37;;;;;;;;;;;13.80;99.90;;;;;;5115917;28;20053;-57
2023/10/15 11:04:09;;;;;;;;;;;13.80;99.90;;;;;;5116008;28;20010;-57
2023/10/15 11:06:42;;;;;;;;;;;13.80;99.90;;;;;;5116093;28;19945;-57
2023/10/15 11:09:42;;;;;;;;;;;13.70;99.90;;;;;;5116259;28;19919;-57
2023/10/15 11:12:04;;;;;;;;;;;13.70;99.90;;;;;;5108208;28;19955;-57
2023/10/15 11:14:29;;;;;;;;;;;13.70;99.90;;;;;;5095333;28;20373;-57
2023/10/15 11:16:55;;;;;;;;;;;13.70;99.90;;;;;;5103650;28;19915;-57
2023/10/15 11:19:25;;;;;;;;;;;13.70;99.90;;;;;;5115908;28;19965;-57
2023/10/15 11:21:52;;;;;;;;;;;13.60;99.90;;;;;;5115916;28;19912;-57
2023/10/15 11:24:19;;;;;;;;;;;13.70;99.90;;;;;;5115694;28;19923;-57
2023/10/15 11:26:45;;;;;;;;;;;13.70;99.90;;;;;;5115756;28;20377;-57
2023/10/15 11:29:12;;;;;;;;;;;13.50;99.90;;;;;;5115915;28;19943;-57
2023/10/15 11:31:43;;;;;;;;;;;13.60;99.90;;;;;;5115692;28;19912;-57
2023/10/15 11:34:12;;;;;;;;;;;13.50;99.90;;;;;;5116962;28;19985;-57
2023/10/15 11:36:39;;;;;;;;;;;13.60;99.90;;;;;;5119479;28;20357;-57
2023/10/15 11:39:10;;;;;;;;;;;13.70;99.90;;;;;;5119317;28;19912;-57
2023/10/15 11:41:38;;;;;;;;;;;13.70;99.90;;;;;;5119498;28;19912;-57
2023/10/15 11:44:06;;;;;;;;;;;13.80;99.90;;;;;;5119296;28;20000;-57
2023/10/15 11:46:35;;;;;;;;;;;13.70;99.90;;;;;;5119734;28;20411;-57
2023/10/15 11:49:01;;;;;;;;;;;13.60;99.90;;;;;;5119379;28;19933;-57
2023/10/15 11:51:30;;;;;;;;;;;13.70;99.90;;;;;;5119213;28;19989;-57
2023/10/15 11:54:04;;;;;;;;;;;13.70;99.90;;;;;;5119047;28;19916;-57
2023/10/15 11:56:31;;;;;;;;;;;13.60;99.90;;;;;;5119257;28;19951;-57
2023/10/15 11:59:00;;;;;;;;;;;13.70;99.90;;;;;;5119102;28;19916;-57
2023/10/15 12:01:28;;;;;;;;;;;13.70;99.90;;;;;;5118943;28;19915;-57
2023/10/15 12:04:00;;;;;;;;;;;13.50;99.90;;;;;;5118954;28;19916;-57
2023/10/15 12:06:26;;;;;;;;;;;13.40;99.90;;;;;;5118856;28;19947;-57
2023/10/15 12:08:52;;;;;;;;;;;13.30;99.90;;;;;;5118886;28;19934;-57
2023/10/15 12:11:18;;;;;;;;;;;13.30;99.90;;;;;;5118832;28;20002;-57
2023/10/15 12:13:47;;;;;;;;;;;13.40;99.90;;;;;;5097091;28;19912;-57
2023/10/15 12:16:13;;;;;;;;;;;13.50;99.90;;;;;;5100333;28;19908;-57
2023/10/15 12:18:39;;;;;;;;;;;13.50;99.90;;;;;;5118592;28;20041;-57
2023/10/15 12:21:06;;;;;;;;;;;13.40;99.90;;;;;;5118741;28;19955;-57
2023/10/15 12:23:32;;;;;;;;;;;13.40;99.90;;;;;;5117416;28;20010;-58
2023/10/15 12:25:57;;;;;;;;;;;13.30;99.90;;;;;;5118658;28;19963;-58
2023/10/15 12:28:23;;;;;;;;;;;13.30;99.90;;;;;;5118576;28;19974;-58
2023/10/15 12:30:49;;;;;;;;;;;13.30;99.90;;;;;;5118483;28;19918;-57
2023/10/15 12:33:18;;;;;;;;;;;13.30;99.90;;;;;;5118369;28;19957;-57
2023/10/15 12:35:44;;;;;;;;;;;13.40;99.90;;;;;;5118414;28;19964;-58
2023/10/15 12:38:16;;;;;;;;;;;13.40;99.90;;;;;;5118364;28;19983;-58
2023/10/15 12:40:45;;;;;;;;;;;13.30;99.90;;;;;;5118361;28;19970;-58
2023/10/15 12:43:17;;;;;;;;;;;13.30;99.90;;;;;;5118217;28;19917;-58
2023/10/15 12:45:46;;;;;;;;;;;13.40;99.90;;;;;;5117358;28;19915;-58
2023/10/15 12:48:11;;;;;;;;;;;13.30;99.90;;;;;;5118248;28;19912;-58
2023/10/15 12:50:37;;;;;;;;;;;13.20;99.90;;;;;;5118127;28;19915;-58
2023/10/15 12:53:03;;;;;;;;;;;13.20;99.90;;;;;;5118140;28;20455;-58
2023/10/15 12:55:29;;;;;;;;;;;13.10;99.90;;;;;;5117937;28;19907;-58
2023/10/15 12:57:55;;;;;;;;;;;13.10;99.90;;;;;;5118183;28;19922;-57
2023/10/15 13:00:21;;;;;;;;;;;13.00;99.90;;;;;;5117759;28;19971;-57
2023/10/15 13:02:49;;;;;;;;;;;12.80;99.90;;;;;;5117803;28;19919;-57
2023/10/15 13:05:19;;;;;;;;;;;12.90;99.90;;;;;;5118072;28;19951;-58
2023/10/15 13:07:45;;;;;;;;;;;12.90;99.90;;;;;;5117721;28;19911;-57
2023/10/15 13:10:13;;;;;;;;;;;12.90;99.90;;;;;;5117680;28;19916;-58
2023/10/15 13:12:39;;;;;;;;;;;12.80;99.90;;;;;;5105964;28;19912;-58
2023/10/15 13:15:08;;;;;;;;;;;12.30;99.90;;;;;;5097165;28;19912;-57
2023/10/15 13:17:34;;;;;;;;;;;12.40;99.90;;;;;;5110610;28;19912;-57
2023/10/15 13:20:05;;;;;;;;;;;12.50;99.90;;;;;;5117558;28;20437;-58
2023/10/15 13:22:30;;;;;;;;;;;12.60;99.90;;;;;;5117703;28;19912;-57
2023/10/15 13:24:56;;;;;;;;;;;12.70;99.90;;;;;;5117443;28;19966;-57
2023/10/15 13:27:22;;;;;;;;;;;12.60;99.90;;;;;;5117400;28;19934;-57
2023/10/15 13:29:47;;;;;;;;;;;12.60;99.90;;;;;;5117291;28;19934;-57
2023/10/15 13:32:14;;;;;;;;;;;12.50;99.90;;;;;;5117287;28;20426;-58
2023/10/15 13:34:41;;;;;;;;;;;12.50;99.90;;;;;;5117209;28;19947;-58
2023/10/15 13:37:09;;;;;;;;;;;12.50;99.90;;;;;;5117345;28;19969;-57
2023/10/15 13:39:36;;;;;;;;;;;12.60;99.90;;;;;;5117151;28;19912;-58
2023/10/15 13:42:02;;;;;;;;;;;12.40;99.90;;;;;;5116920;28;19916;-58
2023/10/15 13:44:27;;;;;;;;;;;12.40;99.90;;;;;;5116905;28;19938;-57
2023/10/15 13:46:53;;;;;;;;;;;12.30;99.90;;;;;;5117091;28;19912;-57
2023/10/15 13:49:19;;;;;;;;;;;12.20;99.90;;;;;;5117040;28;19931;-57
2023/10/15 13:51:46;;;;;;;;;;;12.20;99.90;;;;;;5116981;28;19938;-57
2023/10/15 13:54:12;;;;;;;;;;;12.10;99.90;;;;;;5116750;28;19912;-57
2023/10/15 13:56:41;;;;;;;;;;;12.00;99.90;;;;;;5116580;28;20365;-57
2023/10/15 13:59:11;;;;;;;;;;;12.00;99.90;;;;;;5115999;28;19916;-57
2023/10/15 14:01:37;;;;;;;;;;;12.10;99.90;;;;;;5116754;28;19920;-57
2023/10/15 14:04:04;;;;;;;;;;;12.10;99.90;;;;;;5116727;28;19923;-57
2023/10/15 14:06:29;;;;;;;;;;;12.10;99.90;;;;;;5116732;28;19964;-57
2023/10/15 14:08:55;;;;;;;;;;;12.00;99.90;;;;;;5116589;28;19982;-57
2023/10/15 14:11:21;;;;;;;;;;;12.10;99.90;;;;;;5116078;28;19981;-57
2023/10/15 14:13:47;;;;;;;;;;;12.10;99.90;;;;;;5096168;28;20418;-57
2023/10/15 14:16:13;;;;;;;;;;;12.00;99.90;;;;;;5097981;28;20354;-57
2023/10/15 14:18:41;;;;;;;;;;;11.90;99.90;;;;;;5116539;28;19975;-57
2023/10/15 14:21:08;;;;;;;;;;;11.90;99.90;;;;;;5116419;28;19920;-57
2023/10/15 14:23:34;;;;;;;;;;;11.80;99.90;;;;;;5116339;28;19911;-57
2023/10/15 14:26:01;;;;;;;;;;;11.80;99.90;;;;;;5116341;28;19912;-57
2023/10/15 14:28:27;;;;;;;;;;;11.80;99.90;;;;;;5116463;28;19916;-57
2023/10/15 14:30:53;;;;;;;;;;;11.70;99.90;;;;;;5116293;28;20422;-57